METAR Formatted Surface Weather Observation
Issued by NWS

Home | Current Version | Previous Version | Text Only | Print | Product List | Glossary On
Versions: 1 2 3 4 5 6 7 8 9
797
SAUS41 KGYX 251004 COR
MTRNKT
METAR KNKT 250954Z 18004KT 10SM CLR 09/08 A3034 RMK AO2 SLP269
T00940083



USA.gov is the U.S. government's official web portal to all federal, state and local government web resources and services.